Time;durP1;ratioP1;P1;durP2;ratioP2;P2;SDS_P1;SDS_P2;PMS_P1;PMS_P2;Temp;Humidity;BMP_temperature;BMP_pressure;BME280_temperature;BME280_humidity;BME280_pressure;Samples;Min_cycle;Max_cycle;Signal;HPM_P1;HPM_P2
2022/11/17 00:01:08;;;;;;;13.98;7.78;;;;;;;6.13;100.00;97393.81;4878743;29;20047;-80
2022/11/17 00:03:53;;;;;;;18.38;11.32;;;;;;;6.15;100.00;97404.94;4891130;29;20044;-81
2022/11/17 00:06:37;;;;;;;17.55;9.63;;;;;;;6.09;100.00;97403.59;4903254;29;20516;-81
2022/11/17 00:09:22;;;;;;;17.40;9.88;;;;;;;6.04;100.00;97408.25;4902167;29;20119;-80
2022/11/17 00:15:10;;;;;;;18.02;8.68;;;;;;;6.03;100.00;97404.00;4893086;29;20040;-80
2022/11/17 00:21:20;;;;;;;17.95;10.13;;;;;;;5.98;100.00;97393.94;4875538;29;20060;-78
2022/11/17 00:24:05;;;;;;;17.02;9.60;;;;;;;5.99;100.00;97395.59;4885727;29;20048;-80
2022/11/17 00:27:02;;;;;;;13.65;8.48;;;;;;;5.95;100.00;97391.56;4905460;29;20047;-81
2022/11/17 00:29:46;;;;;;;15.02;8.93;;;;;;;6.02;100.00;97392.78;4890696;29;20456;-80
2022/11/17 00:35:34;;;;;;;16.50;9.32;;;;;;;6.12;100.00;97400.78;4918154;29;20049;-80
2022/11/17 00:38:19;;;;;;;15.50;9.15;;;;;;;6.08;100.00;97390.72;4927497;29;20086;-76
2022/11/17 00:41:04;;;;;;;15.43;9.43;;;;;;;6.09;100.00;97395.00;4894636;29;20400;-79
2022/11/17 00:43:49;;;;;;;17.30;9.73;;;;;;;6.04;100.00;97390.06;4892127;29;20067;-80
2022/11/17 00:46:36;;;;;;;15.10;9.70;;;;;;;6.05;100.00;97394.38;4874430;29;20146;-81
2022/11/17 00:49:24;;;;;;;18.27;10.38;;;;;;;6.03;100.00;97391.00;4898081;29;20036;-80
2022/11/17 00:52:08;;;;;;;17.38;10.02;;;;;;;6.09;100.00;97400.19;4883087;29;20156;-80
2022/11/17 00:54:53;;;;;;;20.23;10.52;;;;;;;6.13;100.00;97391.22;4891425;29;20056;-81
2022/11/17 00:57:37;;;;;;;15.55;9.32;;;;;;;6.12;100.00;97392.16;4882179;29;20037;-81
2022/11/17 01:00:22;;;;;;;21.80;9.45;;;;;;;6.12;100.00;97392.16;4903838;29;20055;-80
2022/11/17 01:03:06;;;;;;;16.27;10.13;;;;;;;6.12;100.00;97389.56;4892565;29;20067;-81
2022/11/17 01:05:51;;;;;;;16.33;9.93;;;;;;;6.14;100.00;97388.50;4901817;29;20041;-83
2022/11/17 01:08:36;;;;;;;17.75;10.43;;;;;;;6.15;100.00;97379.75;4897074;29;20032;-80
2022/11/17 01:11:20;;;;;;;16.77;9.80;;;;;;;6.18;100.00;97375.28;4882799;29;20091;-80
2022/11/17 01:14:05;;;;;;;14.20;7.68;;;;;;;6.18;100.00;97375.28;4879376;29;20052;-80
2022/11/17 01:16:50;;;;;;;15.65;8.80;;;;;;;6.15;100.00;97384.16;4895644;29;20036;-81
2022/11/17 01:19:35;;;;;;;17.13;10.30;;;;;;;6.16;100.00;97393.59;4874201;29;20044;-80
2022/11/17 01:22:20;;;;;;;15.57;9.73;;;;;;;6.16;100.00;97399.63;4874193;29;20056;-80
2022/11/17 01:25:04;;;;;;;14.02;8.43;;;;;;;6.15;100.00;97397.94;4874777;29;20111;-78
2022/11/17 01:27:49;;;;;;;14.38;8.68;;;;;;;6.17;100.00;97395.25;4910043;29;20040;-80
2022/11/17 01:30:33;;;;;;;16.00;9.30;;;;;;;6.20;100.00;97387.22;4880427;29;20580;-80
2022/11/17 01:33:18;;;;;;;16.00;8.85;;;;;;;6.21;100.00;97386.28;4900304;29;20041;-81
2022/11/17 01:36:05;;;;;;;16.52;9.20;;;;;;;6.10;100.00;97383.63;4876895;29;20045;-80
2022/11/17 01:38:50;;;;;;;14.57;8.07;;;;;;;6.13;100.00;97388.63;4900677;29;20320;-81
2022/11/17 01:41:34;;;;;;;16.10;8.65;;;;;;;6.09;100.00;97374.19;4900881;29;20040;-81
2022/11/17 01:44:35;;;;;;;13.77;8.27;;;;;;;6.13;100.00;97384.25;4889320;29;20091;-80
2022/11/17 01:47:26;;;;;;;14.80;8.60;;;;;;;6.08;100.00;97362.09;4895610;29;20048;-81
2022/11/17 01:50:23;;;;;;;16.50;8.35;;;;;;;6.12;100.00;97364.38;4879431;29;20410;-82
2022/11/17 01:53:13;;;;;;;11.88;8.00;;;;;;;6.16;100.00;97355.41;4903362;29;20095;-80
2022/11/17 01:56:09;;;;;;;12.32;7.32;;;;;;;6.11;100.00;97354.91;4872684;29;20115;-81
2022/11/17 01:59:00;;;;;;;12.38;7.07;;;;;;;6.13;100.00;97344.41;4894954;29;20051;-80
2022/11/17 02:01:56;;;;;;;12.38;7.18;;;;;;;6.13;100.00;97337.44;4870948;29;20054;-81
2022/11/17 02:04:48;;;;;;;11.80;7.35;;;;;;;6.07;100.00;97324.88;4894303;29;20544;-80
2022/11/17 02:07:38;;;;;;;11.98;6.72;;;;;;;6.08;100.00;97321.34;4877960;29;20060;-81
2022/11/17 02:10:23;;;;;;;11.82;7.30;;;;;;;6.12;100.00;97329.75;4897757;29;20044;-81
2022/11/17 02:13:08;;;;;;;12.77;7.35;;;;;;;6.13;100.00;97329.66;4884467;29;20107;-80
2022/11/17 02:15:52;;;;;;;12.95;7.05;;;;;;;6.13;100.00;97326.19;4892691;29;20366;-81
2022/11/17 02:18:39;;;;;;;10.32;5.88;;;;;;;6.12;100.00;97327.16;4886563;29;20132;-80
2022/11/17 02:21:32;;;;;;;11.20;7.38;;;;;;;6.17;100.00;97327.63;4904084;29;20155;-79
2022/11/17 02:24:30;;;;;;;10.38;6.05;;;;;;;6.15;100.00;97334.72;4907609;29;20408;-78
2022/11/17 02:27:43;;;;;;;11.55;6.18;;;;;;;6.14;100.00;97327.84;4898064;29;20501;-81
2022/11/17 02:30:39;;;;;;;10.85;6.63;;;;;;;6.13;100.00;97336.59;4895243;29;20054;-82
2022/11/17 02:33:45;;;;;;;8.48;5.80;;;;;;;6.03;100.00;97332.06;4903168;29;20044;-81
2022/11/17 02:36:39;;;;;;;13.07;6.47;;;;;;;6.05;100.00;97326.78;4907036;29;20139;-80
2022/11/17 02:39:40;;;;;;;9.95;6.43;;;;;;;6.02;100.00;97329.56;4894394;29;20048;-79
2022/11/17 02:46:08;;;;;;;11.32;6.68;;;;;;;5.88;100.00;97320.16;4886968;29;20043;-81
2022/11/17 02:49:04;;;;;;;9.70;6.45;;;;;;;5.86;100.00;97317.66;4867649;29;20488;-82
2022/11/17 02:51:52;;;;;;;10.55;6.60;;;;;;;5.96;100.00;97322.19;4893817;29;20072;-81
2022/11/17 02:54:37;;;;;;;8.10;6.00;;;;;;;5.99;100.00;97317.59;4881202;29;20040;-81
2022/11/17 02:57:33;;;;;;;10.82;6.60;;;;;;;6.03;100.00;97319.06;4896834;29;20056;-81
2022/11/17 03:00:19;;;;;;;10.52;6.47;;;;;;;6.03;100.00;97315.63;4888067;29;20067;-79
2022/11/17 03:03:21;;;;;;;8.90;5.80;;;;;;;6.06;100.00;97306.78;4902902;29;20111;-80
2022/11/17 03:06:29;;;;;;;;;;;;;;;6.06;100.00;97304.19;4882877;29;20044;-79
2022/11/17 03:09:20;;;;;;;8.18;5.30;;;;;;;6.06;100.00;97309.38;4904758;29;20042;-80
2022/11/17 03:12:11;;;;;;;8.88;5.78;;;;;;;6.00;100.00;97298.47;4875230;29;20119;-82
2022/11/17 03:14:59;;;;;;;8.30;5.38;;;;;;;5.98;100.00;97292.56;4872622;29;20083;-80
2022/11/17 03:17:56;;;;;;;7.90;5.57;;;;;;;5.96;100.00;97291.84;4890487;29;20058;-80
2022/11/17 03:20:54;;;;;;;7.10;5.00;;;;;;;6.01;100.00;97292.31;4898239;29;20083;-80
2022/11/17 03:24:04;;;;;;;9.30;6.03;;;;;;;6.09;100.00;97303.97;4908882;29;20419;-81
2022/11/17 03:26:54;;;;;;;8.30;6.00;;;;;;;6.13;100.00;97297.59;4908721;29;20037;-81
2022/11/17 03:29:42;;;;;;;10.82;6.32;;;;;;;6.09;100.00;97304.78;4892705;29;20044;-79
2022/11/17 03:32:32;;;;;;;7.88;5.22;;;;;;;6.11;100.00;97302.06;4878080;29;20063;-81
2022/11/17 03:35:22;;;;;;;8.00;5.75;;;;;;;6.14;100.00;97302.69;4902305;29;20122;-78
2022/11/17 03:38:11;;;;;;;10.95;6.38;;;;;;;6.14;100.00;97315.69;4887084;29;20044;-81
2022/11/17 03:41:01;;;;;;;9.45;5.88;;;;;;;6.14;100.00;97318.28;4886929;29;20033;-81
2022/11/17 03:43:50;;;;;;;8.82;5.60;;;;;;;6.14;100.00;97313.09;4893100;29;20126;-80
2022/11/17 03:46:37;;;;;;;9.10;6.25;;;;;;;6.13;100.00;97311.44;4898310;29;20078;-80
2022/11/17 03:49:41;;;;;;;9.40;5.75;;;;;;;6.11;100.00;97302.91;4883052;29;20390;-82
2022/11/17 03:52:28;;;;;;;8.43;5.80;;;;;;;6.11;100.00;97302.06;4903132;29;20509;-80
2022/11/17 03:55:23;;;;;;;;;;;;;;;;;;;;;
2022/11/17 03:58:32;;;;;;;8.98;5.72;;;;;;;6.10;100.00;97311.66;4860945;29;20068;-80
2022/11/17 04:01:19;;;;;;;7.80;5.10;;;;;;;6.13;100.00;97313.19;4893130;29;20378;-79
2022/11/17 04:04:04;;;;;;;8.57;5.53;;;;;;;6.15;100.00;97316.53;4882368;29;20062;-82
2022/11/17 04:06:51;;;;;;;8.63;5.82;;;;;;;6.16;100.00;97315.56;4888159;29;20099;-79
2022/11/17 04:09:36;;;;;;;6.88;4.72;;;;;;;6.18;100.00;97323.25;4879043;29;20059;-80
2022/11/17 04:18:31;;;;;;;7.15;4.80;;;;;;;6.08;100.00;97323.09;4903078;29;20075;-81
2022/11/17 04:21:16;;;;;;;8.48;5.57;;;;;;;6.11;100.00;97315.06;4883861;29;20566;-78
2022/11/17 04:24:00;;;;;;;8.73;5.32;;;;;;;6.04;100.00;97315.53;4886162;29;20036;-80
2022/11/17 04:29:48;;;;;;;9.70;5.47;;;;;;;6.10;100.00;97316.03;4896097;29;20036;-81
2022/11/17 04:32:33;;;;;;;8.48;5.03;;;;;;;6.04;100.00;97318.13;4883802;29;20048;-82
2022/11/17 04:35:18;;;;;;;8.02;5.13;;;;;;;6.09;100.00;97310.00;4885548;29;20672;-80
2022/11/17 04:38:03;;;;;;;8.27;5.43;;;;;;;6.08;100.00;97316.16;4887918;29;20050;-80
2022/11/17 04:43:51;;;;;;;8.23;5.45;;;;;;;6.09;100.00;97314.38;4901732;29;20059;-80
2022/11/17 04:46:37;;;;;;;7.60;4.50;;;;;;;6.08;100.00;97318.75;4880573;29;20037;-82
2022/11/17 04:49:23;;;;;;;5.45;3.85;;;;;;;6.11;100.00;97320.28;4884587;29;20059;-79
2022/11/17 04:52:08;;;;;;;8.05;4.45;;;;;;;6.15;100.00;97325.13;4893139;29;20100;-79
2022/11/17 04:54:53;;;;;;;5.97;4.20;;;;;;;6.23;100.00;97323.75;4888402;29;20040;-80
2022/11/17 04:57:37;;;;;;;8.40;5.47;;;;;;;6.25;100.00;97329.69;4896527;29;20052;-83
2022/11/17 05:00:22;;;;;;;7.90;4.30;;;;;;;6.19;100.00;97330.94;4901882;29;20045;-80
2022/11/17 05:03:07;;;;;;;6.55;4.35;;;;;;;6.18;100.00;97328.47;4894378;29;20040;-81
2022/11/17 05:05:52;;;;;;;7.45;4.80;;;;;;;6.21;100.00;97328.25;4891319;29;20501;-81
2022/11/17 05:08:38;;;;;;;6.28;4.45;;;;;;;6.14;100.00;97336.50;4892706;29;20052;-81
2022/11/17 05:14:29;;;;;;;6.28;4.38;;;;;;;6.19;100.00;97324.91;4885448;29;20040;-78
2022/11/17 05:17:14;;;;;;;5.40;3.70;;;;;;;6.21;100.00;97329.06;4875847;29;20041;-82
2022/11/17 05:20:00;;;;;;;5.53;4.13;;;;;;;6.21;100.00;97316.06;4880412;29;20875;-84
2022/11/17 05:25:52;;;;;;;7.95;4.28;;;;;;;6.15;100.00;97327.75;4899457;29;20040;-82
2022/11/17 05:28:37;;;;;;;6.93;4.50;;;;;;;6.13;100.00;97331.41;4906648;29;20150;-80
2022/11/17 05:31:23;;;;;;;5.68;4.10;;;;;;;6.13;100.00;97332.25;4881455;29;20044;-82
2022/11/17 05:34:11;;;;;;;7.40;5.32;;;;;;;6.16;100.00;97336.38;4892879;29;20044;-81
2022/11/17 05:36:56;;;;;;;7.85;4.80;;;;;;;6.12;100.00;97343.56;4880042;29;20033;-83
2022/11/17 05:39:40;;;;;;;6.47;3.35;;;;;;;6.13;100.00;97345.25;4894841;29;20048;-81
2022/11/17 05:42:25;;;;;;;7.53;5.50;;;;;;;6.12;100.00;97342.75;4882974;29;20185;-80
2022/11/17 05:45:10;;;;;;;7.57;4.57;;;;;;;6.12;100.00;97342.75;4878982;29;20044;-85
2022/11/17 05:47:55;;;;;;;7.65;4.90;;;;;;;6.10;100.00;97331.63;4882776;29;20037;-85
2022/11/17 05:50:39;;;;;;;6.97;4.80;;;;;;;6.11;100.00;97333.28;4888988;29;20044;-84
2022/11/17 05:53:25;;;;;;;7.85;5.10;;;;;;;6.12;100.00;97337.56;4850355;29;20120;-83
2022/11/17 05:56:40;;;;;;;8.43;5.32;;;;;;;6.08;100.00;97326.53;4834563;29;20053;-86
2022/11/17 05:59:46;;;;;;;6.03;4.13;;;;;;;6.09;100.00;97333.41;4832182;29;20061;-84
2022/11/17 06:02:38;;;;;;;9.27;5.60;;;;;;;6.04;100.00;97325.94;4868382;29;20074;-83
2022/11/17 06:05:24;;;;;;;9.73;6.40;;;;;;;6.04;100.00;97325.06;4833004;29;20086;-88
2022/11/17 06:08:09;;;;;;;10.65;6.07;;;;;;;5.99;100.00;97330.59;4818057;29;20553;-83
2022/11/17 06:10:55;;;;;;;11.38;6.65;;;;;;;5.93;100.00;97333.66;4845660;29;20057;-82
2022/11/17 06:13:39;;;;;;;13.57;6.95;;;;;;;5.93;100.00;97333.66;4846215;29;20545;-83
2022/11/17 06:16:28;;;;;;;10.73;6.93;;;;;;;5.92;100.00;97330.22;4850954;29;21006;-89
2022/11/17 06:19:21;;;;;;;11.20;6.15;;;;;;;6.00;100.00;97328.84;4834997;29;20516;-85
2022/11/17 06:22:08;;;;;;;9.57;6.43;;;;;;;5.98;100.00;97330.72;4829394;29;20207;-85
2022/11/17 06:24:53;;;;;;;10.23;6.65;;;;;;;5.96;100.00;97330.81;4833558;29;20061;-84
2022/11/17 06:27:39;;;;;;;10.05;6.57;;;;;;;6.02;100.00;97335.56;4830654;29;20049;-84
2022/11/17 06:30:24;;;;;;;7.63;4.88;;;;;;;6.14;100.00;97331.28;4847805;29;20060;-83
2022/11/17 06:33:13;;;;;;;12.85;6.75;;;;;;;6.16;100.00;97336.38;4881892;29;20052;-84
2022/11/17 06:36:28;;;;;;;9.82;5.72;;;;;;;6.11;100.00;97335.88;4888180;29;20064;-84
2022/11/17 06:39:13;;;;;;;15.77;6.43;;;;;;;6.13;100.00;97339.22;4903669;29;20454;-84
2022/11/17 06:41:58;;;;;;;11.60;6.72;;;;;;;6.07;100.00;97345.66;4879333;29;20077;-86
2022/11/17 06:44:43;;;;;;;9.80;6.60;;;;;;;6.03;100.00;97342.47;4890310;29;20075;-85
2022/11/17 06:47:28;;;;;;;11.98;7.35;;;;;;;6.09;100.00;97349.00;4892165;29;20048;-86
2022/11/17 06:50:18;;;;;;;10.25;6.10;;;;;;;6.07;100.00;97345.66;4881964;29;20413;-85
2022/11/17 06:53:11;;;;;;;10.02;7.05;;;;;;;6.12;100.00;97358.34;4895419;29;20534;-85
2022/11/17 06:56:07;;;;;;;9.73;6.75;;;;;;;6.16;100.00;97358.03;4896424;29;20506;-84
2022/11/17 06:58:53;;;;;;;10.77;6.65;;;;;;;6.16;100.00;97357.19;4887311;29;20051;-88
2022/11/17 07:01:38;;;;;;;5.72;4.18;;;;;;;6.57;100.00;97365.50;4897556;29;20048;-86
2022/11/17 07:04:23;;;;;;;6.82;4.63;;;;;;;6.69;100.00;97366.31;4905508;29;20072;-85
2022/11/17 07:07:07;;;;;;;8.93;5.65;;;;;;;6.64;100.00;97366.66;4878221;29;20047;-86
2022/11/17 07:09:52;;;;;;;12.63;6.43;;;;;;;6.75;100.00;97357.25;4882900;29;20071;-83
2022/11/17 07:12:37;;;;;;;11.75;5.88;;;;;;;6.83;100.00;97351.44;4895879;29;20071;-85
2022/11/17 07:15:22;;;;;;;9.60;5.82;;;;;;;6.87;100.00;97351.09;4882283;29;20177;-88
2022/11/17 07:18:10;;;;;;;9.80;5.35;;;;;;;7.03;100.00;97352.53;4885347;29;20099;-86
2022/11/17 07:21:10;;;;;;;13.05;6.97;;;;;;;7.12;100.00;97353.59;4888470;29;20052;-85
2022/11/17 07:23:54;;;;;;;13.25;6.97;;;;;;;7.04;100.00;97356.81;4873384;29;20095;-89
2022/11/17 07:26:39;;;;;;;10.27;4.88;;;;;;;7.37;100.00;97356.91;4869522;29;20110;-86
2022/11/17 07:29:24;;;;;;;8.35;4.65;;;;;;;7.66;100.00;97360.78;4904260;29;20141;-85
2022/11/17 07:32:10;;;;;;;12.18;6.93;;;;;;;7.30;100.00;97372.19;4905797;29;20457;-86
2022/11/17 07:34:56;;;;;;;10.80;6.00;;;;;;;7.29;100.00;97357.53;4879901;29;20084;-87
2022/11/17 07:37:41;;;;;;;14.25;7.55;;;;;;;7.02;100.00;97362.13;4896681;29;20415;-87
2022/11/17 07:40:26;;;;;;;13.70;7.82;;;;;;;7.13;100.00;97357.88;4892067;29;20048;-85
2022/11/17 07:43:11;;;;;;;15.20;7.47;;;;;;;7.29;100.00;97360.13;4885788;29;20472;-87
2022/11/17 07:46:13;;;;;;;14.13;7.60;;;;;;;7.55;100.00;97352.06;4881462;29;20056;-85
2022/11/17 07:48:58;;;;;;;12.68;7.20;;;;;;;7.80;100.00;97346.66;4893618;29;20044;-84
2022/11/17 07:51:43;;;;;;;12.07;6.47;;;;;;;7.71;100.00;97341.22;4879086;29;20033;-86
2022/11/17 07:54:31;;;;;;;13.57;7.53;;;;;;;7.80;100.00;97347.47;4887805;29;20453;-75
2022/11/17 07:57:24;;;;;;;11.57;6.18;;;;;;;8.20;100.00;97347.84;4863676;29;20359;-86
2022/11/17 08:00:10;;;;;;;16.38;8.50;;;;;;;8.22;100.00;97343.31;4901925;29;20062;-86
2022/11/17 08:03:02;;;;;;;15.13;7.32;;;;;;;7.94;100.00;97341.19;4895294;29;20071;-84
2022/11/17 08:05:47;;;;;;;14.05;6.78;;;;;;;7.67;100.00;97345.03;4874094;29;20036;-81
2022/11/17 08:08:32;;;;;;;15.13;7.97;;;;;;;7.89;100.00;97343.31;4886611;29;20104;-86
2022/11/17 08:11:20;;;;;;;12.00;6.53;;;;;;;8.10;100.00;97345.97;4884562;29;20048;-87
2022/11/17 08:14:05;;;;;;;14.73;7.40;;;;;;;8.68;100.00;97349.16;4897139;29;20143;-82
2022/11/17 08:16:50;;;;;;;14.43;7.40;;;;;;;7.92;100.00;97345.69;4895665;29;20203;-85
2022/11/17 08:19:34;;;;;;;10.25;5.65;;;;;;;8.21;100.00;97354.72;4891065;29;20055;-88
2022/11/17 08:22:19;;;;;;;10.68;6.63;;;;;;;8.19;100.00;97351.41;4891481;29;20090;-85
2022/11/17 08:25:04;;;;;;;13.68;7.30;;;;;;;8.75;100.00;97352.91;4905967;29;20130;-86
2022/11/17 08:27:53;;;;;;;10.10;6.38;;;;;;;10.09;100.00;97350.31;4895220;29;20385;-82
2022/11/17 08:30:37;;;;;;;9.13;4.78;;;;;;;12.12;100.00;97346.66;4881812;29;20553;-83
2022/11/17 08:33:22;;;;;;;11.50;6.32;;;;;;;11.08;100.00;97347.59;4876830;29;20052;-82
2022/11/17 08:36:07;;;;;;;10.65;5.90;;;;;;;10.55;100.00;97352.41;4902901;29;20473;-83
2022/11/17 08:38:53;;;;;;;9.95;5.75;;;;;;;8.84;100.00;97355.72;4906209;29;20044;-82
2022/11/17 08:41:37;;;;;;;13.65;6.65;;;;;;;8.80;100.00;97364.75;4885024;29;20049;-82
2022/11/17 08:44:22;;;;;;;12.15;6.32;;;;;;;8.66;100.00;97368.53;4878694;29;20058;-83
2022/11/17 08:47:07;;;;;;;12.32;7.13;;;;;;;8.18;100.00;97374.03;4882382;29;20055;-80
2022/11/17 08:49:52;;;;;;;11.13;6.47;;;;;;;8.34;100.00;97381.44;4898524;29;20040;-82
2022/11/17 08:52:36;;;;;;;10.25;6.50;;;;;;;8.19;100.00;97380.94;4906891;29;20564;-84
2022/11/17 08:55:21;;;;;;;9.55;6.30;;;;;;;8.73;100.00;97383.53;4885141;29;20067;-83
2022/11/17 08:58:06;;;;;;;11.13;6.40;;;;;;;8.94;100.00;97387.13;4877758;29;20346;-83
2022/11/17 09:00:51;;;;;;;12.85;7.40;;;;;;;8.27;100.00;97385.53;4892528;29;20473;-83
2022/11/17 09:03:41;;;;;;;13.30;7.47;;;;;;;8.24;100.00;97386.59;4875929;29;20501;-80
2022/11/17 09:06:26;;;;;;;9.65;5.70;;;;;;;12.02;100.00;97386.06;4886453;29;20043;-75
2022/11/17 09:09:10;;;;;;;10.60;5.18;;;;;;;13.35;100.00;97392.34;4903345;29;20086;-76
2022/11/17 09:12:00;;;;;;;12.23;6.43;;;;;;;12.95;96.27;97389.31;4918999;29;20044;-87
2022/11/17 09:14:44;;;;;;;11.45;6.18;;;;;;;10.57;92.89;97392.38;4916129;29;20025;-82
2022/11/17 09:17:30;;;;;;;10.55;6.90;;;;;;;9.33;100.00;97405.63;4905348;29;20119;-82
2022/11/17 09:20:16;;;;;;;13.63;6.15;;;;;;;8.57;100.00;97406.69;4884427;29;20044;-82
2022/11/17 09:23:01;;;;;;;13.25;6.53;;;;;;;8.43;100.00;97397.31;4886527;29;20484;-80
2022/11/17 09:25:46;;;;;;;9.60;6.22;;;;;;;8.85;100.00;97405.22;4874357;29;20058;-85
2022/11/17 09:28:34;;;;;;;10.57;5.55;;;;;;;8.69;100.00;97412.66;4891935;29;20036;-83
2022/11/17 09:31:21;;;;;;;10.07;5.47;;;;;;;8.03;100.00;97404.78;4879207;29;20059;-83
2022/11/17 09:34:06;;;;;;;9.85;6.20;;;;;;;8.32;100.00;97401.66;4879966;29;20044;-80
2022/11/17 09:36:51;;;;;;;10.95;5.93;;;;;;;8.46;100.00;97402.28;4882846;29;20084;-80
2022/11/17 09:39:36;;;;;;;13.43;5.50;;;;;;;8.97;100.00;97398.16;4891471;29;20572;-74
2022/11/17 09:42:21;;;;;;;12.05;6.47;;;;;;;10.67;100.00;97403.69;4888277;29;20048;-83
2022/11/17 09:45:19;;;;;;;9.88;5.68;;;;;;;8.97;100.00;97411.22;4894084;29;20733;-81
2022/11/17 09:48:12;;;;;;;11.35;6.07;;;;;;;8.30;100.00;97408.75;4876134;29;20553;-81
2022/11/17 09:51:01;;;;;;;10.73;5.28;;;;;;;8.57;100.00;97404.06;4890772;29;20043;-82
2022/11/17 09:53:54;;;;;;;9.43;5.10;;;;;;;11.62;100.00;97390.72;4893891;29;20128;-77
2022/11/17 09:56:43;;;;;;;10.02;5.63;;;;;;;10.44;92.90;97383.00;4888370;29;20048;-86
2022/11/17 09:59:31;;;;;;;8.68;5.85;;;;;;;8.91;99.99;97371.72;4889011;29;20045;-81
2022/11/17 10:02:19;;;;;;;10.18;5.97;;;;;;;9.73;100.00;97374.34;4894269;29;20510;-82
2022/11/17 10:05:14;;;;;;;11.93;5.45;;;;;;;9.70;98.78;97375.47;4897325;29;20048;-81
2022/11/17 10:08:07;;;;;;;10.98;5.95;;;;;;;9.44;98.73;97367.25;4896334;29;20091;-79
2022/11/17 10:10:51;;;;;;;10.88;5.88;;;;;;;9.50;96.93;97358.88;4892792;29;20047;-82
2022/11/17 10:13:37;;;;;;;9.45;5.97;;;;;;;9.25;95.80;97355.78;4896194;29;20040;-82
2022/11/17 10:16:21;;;;;;;8.82;5.47;;;;;;;9.27;97.48;97350.44;4895198;29;20093;-83
2022/11/17 10:19:15;;;;;;;25.60;13.15;;;;;;;8.91;99.97;97356.84;4907860;29;20048;-82
2022/11/17 10:22:00;;;;;;;12.13;6.63;;;;;;;9.52;99.30;97358.75;4895588;29;20092;-81
2022/11/17 10:24:54;;;;;;;10.85;5.75;;;;;;;9.43;100.00;97361.22;4884546;29;20051;-81
2022/11/17 10:27:50;;;;;;;9.25;5.57;;;;;;;9.38;98.23;97366.00;4879544;29;20085;-82
2022/11/17 10:30:35;;;;;;;10.98;6.13;;;;;;;8.89;100.00;97363.16;4893755;29;20096;-81
2022/11/17 10:33:35;;;;;;;11.10;6.15;;;;;;;9.13;100.00;97362.88;4882602;29;20127;-82
2022/11/17 10:36:20;;;;;;;10.27;6.55;;;;;;;9.16;100.00;97354.78;4892329;29;20130;-84
2022/11/17 10:39:33;;;;;;;12.52;6.40;;;;;;;9.62;97.26;97343.94;4891979;29;20382;-81
2022/11/17 10:42:27;;;;;;;12.27;6.55;;;;;;;9.73;95.60;97342.97;4893521;29;20056;-81
2022/11/17 10:45:16;;;;;;;11.57;6.50;;;;;;;9.56;94.99;97347.06;4910338;29;20040;-81
2022/11/17 10:48:14;;;;;;;11.05;6.57;;;;;;;9.41;97.32;97344.84;4905691;29;20094;-83
2022/11/17 10:51:18;;;;;;;13.30;6.13;;;;;;;9.41;97.24;97337.00;4897641;29;20052;-84
2022/11/17 10:54:15;;;;;;;10.82;6.03;;;;;;;9.73;97.45;97335.13;4881867;29;20476;-81
2022/11/17 10:57:04;;;;;;;9.82;5.47;;;;;;;9.93;94.28;97343.84;4884625;29;20479;-81
2022/11/17 10:59:56;;;;;;;9.60;5.97;;;;;;;9.21;95.70;97357.81;4905289;29;20052;-84
2022/11/17 11:02:40;;;;;;;9.73;5.97;;;;;;;8.94;98.21;97359.22;4894948;29;20052;-83
2022/11/17 11:05:55;;;;;;;8.88;5.60;;;;;;;9.78;97.23;97350.41;4897502;29;20059;-83
2022/11/17 11:09:10;;;;;;;8.70;5.38;;;;;;;9.77;94.08;97357.44;4884939;29;20052;-83
2022/11/17 11:11:58;;;;;;;9.60;6.05;;;;;;;9.69;96.09;97352.91;4893791;29;20405;-86
2022/11/17 11:14:58;;;;;;;9.93;6.00;;;;;;;10.61;95.39;97366.75;4898280;29;20051;-81
2022/11/17 11:17:43;;;;;;;9.85;5.97;;;;;;;9.78;97.56;97363.50;4896884;29;20048;-82
2022/11/17 11:21:00;;;;;;;9.82;6.60;;;;;;;9.17;99.85;97340.75;4908153;29;20110;-82
2022/11/17 11:23:55;;;;;;;10.50;6.10;;;;;;;9.36;98.56;97347.00;4868365;29;20052;-81
2022/11/17 11:27:08;;;;;;;9.98;6.25;;;;;;;9.52;98.71;97343.91;4891276;29;20080;-84
2022/11/17 11:30:04;;;;;;;10.32;6.38;;;;;;;9.34;99.84;97349.75;4881929;29;20041;-85
2022/11/17 11:33:20;;;;;;;11.35;6.60;;;;;;;9.31;99.75;97359.66;4891321;29;20490;-84
2022/11/17 11:36:10;;;;;;;9.88;5.93;;;;;;;9.52;99.29;97350.91;4894667;29;20139;-84
2022/11/17 11:38:54;;;;;;;12.43;6.22;;;;;;;9.52;97.95;97362.19;4888259;29;20050;-83
2022/11/17 11:41:51;;;;;;;10.93;6.70;;;;;;;9.41;98.93;97385.81;4893198;29;20497;-84
2022/11/17 11:44:59;;;;;;;11.80;7.18;;;;;;;9.07;100.00;97392.13;4882911;29;20104;-83
2022/11/17 11:48:13;;;;;;;10.23;6.65;;;;;;;9.18;100.00;97386.00;4881312;29;20056;-83
2022/11/17 11:51:00;;;;;;;10.35;6.72;;;;;;;9.08;100.00;97393.78;4907450;29;20052;-78
2022/11/17 11:54:11;;;;;;;10.68;6.00;;;;;;;11.11;100.00;97378.78;4883577;29;20413;-82
2022/11/17 11:56:59;;;;;;;9.60;6.38;;;;;;;9.73;98.67;97369.97;4877522;29;20045;-83
2022/11/17 12:00:06;;;;;;;9.68;6.07;;;;;;;9.43;100.00;97363.84;4895497;29;20113;-83
2022/11/17 12:03:12;;;;;;;9.07;6.03;;;;;;;9.34;100.00;97365.44;4895734;29;20041;-80
2022/11/17 12:05:56;;;;;;;10.65;7.22;;;;;;;9.52;100.00;97372.66;4893685;29;20036;-81
2022/11/17 12:08:48;;;;;;;11.80;7.05;;;;;;;9.16;100.00;97372.22;4894923;29;20560;-84
2022/11/17 12:14:37;;;;;;;9.82;7.05;;;;;;;8.79;100.00;97377.00;4883235;29;20036;-82
2022/11/17 12:17:26;;;;;;;11.25;6.88;;;;;;;8.79;100.00;97376.16;4884963;29;21536;-80
2022/11/17 12:20:30;;;;;;;10.10;6.88;;;;;;;8.69;100.00;97382.16;4870023;29;20047;-83
2022/11/17 12:23:46;;;;;;;10.05;7.00;;;;;;;8.59;100.00;97391.69;4904360;29;20051;-82
2022/11/17 12:26:33;;;;;;;10.45;6.57;;;;;;;8.48;100.00;97403.00;4854121;29;20045;-81
2022/11/17 12:29:21;;;;;;;10.07;6.80;;;;;;;8.32;100.00;97404.25;4892633;29;20072;-83
2022/11/17 12:32:06;;;;;;;9.27;6.78;;;;;;;8.03;100.00;97410.00;4891420;29;20063;-82
2022/11/17 12:35:28;;;;;;;8.80;6.07;;;;;;;7.96;100.00;97422.75;4886741;29;20040;-81
2022/11/17 12:38:14;;;;;;;9.80;5.97;;;;;;;7.92;100.00;97426.53;4888915;29;21073;-82
2022/11/17 12:40:58;;;;;;;8.52;5.38;;;;;;;7.84;100.00;97429.75;4889028;29;20061;-81
2022/11/17 12:43:43;;;;;;;10.13;5.50;;;;;;;7.75;100.00;97433.88;4886473;29;20095;-84
2022/11/17 12:46:32;;;;;;;6.40;4.28;;;;;;;7.72;100.00;97431.53;4877402;29;20175;-81
2022/11/17 12:49:37;;;;;;;7.88;4.68;;;;;;;7.93;100.00;97422.13;4866019;29;20120;-81
2022/11/17 12:52:29;;;;;;;6.85;4.25;;;;;;;7.72;100.00;97421.09;4875663;29;20044;-81
2022/11/17 12:55:17;;;;;;;6.78;4.55;;;;;;;7.77;100.00;97410.28;4880095;29;20040;-81
2022/11/17 12:58:07;;;;;;;7.13;4.97;;;;;;;7.84;100.00;97405.44;4891026;29;20485;-81
2022/11/17 13:01:16;;;;;;;6.70;4.38;;;;;;;7.87;100.00;97407.78;4904307;29;20111;-82
2022/11/17 13:04:18;;;;;;;5.70;3.60;;;;;;;7.73;100.00;97420.16;4889303;29;20391;-81
2022/11/17 13:07:06;;;;;;;8.15;4.80;;;;;;;7.56;100.00;97418.84;4881483;29;20074;-82
2022/11/17 13:09:52;;;;;;;5.78;3.92;;;;;;;7.77;100.00;97418.13;4875997;29;20057;-82
2022/11/17 13:12:37;;;;;;;5.88;4.10;;;;;;;7.74;100.00;97420.97;4905743;29;20074;-81
2022/11/17 13:15:22;;;;;;;6.63;4.20;;;;;;;7.87;100.00;97424.28;4893657;29;20047;-82
2022/11/17 13:18:27;;;;;;;7.55;4.15;;;;;;;7.85;100.00;97418.34;4903242;29;20136;-83
2022/11/17 13:21:23;;;;;;;6.70;4.13;;;;;;;7.87;100.00;97421.66;4906696;29;20047;-82
2022/11/17 13:24:08;;;;;;;5.45;3.67;;;;;;;7.58;100.00;97430.00;4887410;29;20443;-81
2022/11/17 13:27:08;;;;;;;6.93;4.57;;;;;;;7.58;100.00;97413.53;4892940;29;20060;-82
2022/11/17 13:30:29;;;;;;;8.05;4.22;;;;;;;7.77;100.00;97394.66;4902292;29;20048;-81
2022/11/17 13:33:20;;;;;;;5.90;4.25;;;;;;;8.03;100.00;97381.31;4900688;29;20043;-81
2022/11/17 13:36:15;;;;;;;5.57;3.70;;;;;;;8.34;100.00;97380.66;4887679;29;20048;-80
2022/11/17 13:39:00;;;;;;;5.15;3.83;;;;;;;8.60;100.00;97383.75;4898384;29;20052;-81
2022/11/17 13:41:45;;;;;;;6.55;4.15;;;;;;;8.51;100.00;97371.41;4874989;29;20115;-82
2022/11/17 13:44:31;;;;;;;6.53;4.50;;;;;;;8.30;100.00;97367.00;4887956;29;20056;-82
2022/11/17 13:47:17;;;;;;;6.45;4.03;;;;;;;8.17;100.00;97364.56;4877410;29;20088;-83
2022/11/17 13:50:22;;;;;;;6.85;4.43;;;;;;;8.22;100.00;97361.59;4907382;29;20044;-84
2022/11/17 13:53:10;;;;;;;6.95;4.43;;;;;;;8.17;100.00;97353.31;4893836;29;20131;-81